createdAt,value
2023-04-28T00:00:16.583Z,74.94
2023-04-28T00:02:49.061Z,74.78
2023-04-28T00:05:17.824Z,74.71
2023-04-28T00:07:46.567Z,75.04
2023-04-28T00:10:15.123Z,75.29
2023-04-28T00:12:43.635Z,75.13
2023-04-28T00:15:13.472Z,75.37
2023-04-28T00:17:41.966Z,75.23
2023-04-28T00:20:13.599Z,75.54
2023-04-28T00:22:41.952Z,75.16
2023-04-28T00:25:11.488Z,75.32
2023-04-28T00:27:39.922Z,75.13
2023-04-28T00:30:10.449Z,75.30
2023-04-28T00:32:38.814Z,74.92
2023-04-28T00:35:08.788Z,74.85
2023-04-28T00:37:40.016Z,74.97
2023-04-28T00:40:10.163Z,75.14
2023-04-28T00:42:38.785Z,74.92
2023-04-28T00:45:08.329Z,75.02
2023-04-28T00:47:38.638Z,74.75
2023-04-28T00:50:10.487Z,74.84
2023-04-28T00:52:40.689Z,74.62
2023-04-28T00:55:10.761Z,74.83
2023-04-28T00:57:40.417Z,74.14
2023-04-28T01:00:10.198Z,74.66
2023-04-28T01:02:39.116Z,74.81
2023-04-28T01:05:08.218Z,74.50
2023-04-28T01:07:37.245Z,74.35
2023-04-28T01:10:08.886Z,74.29
2023-04-28T01:12:37.550Z,74.35
2023-04-28T01:15:07.480Z,74.67
2023-04-28T01:17:36.031Z,74.14
2023-04-28T01:20:04.900Z,74.17
2023-04-28T01:22:33.427Z,74.32
2023-04-28T01:25:04.149Z,74.25
2023-04-28T01:27:35.455Z,74.80
2023-04-28T01:30:04.106Z,75.05
2023-04-28T01:32:32.492Z,74.79
2023-04-28T01:35:01.542Z,74.38
2023-04-28T01:37:29.981Z,74.96
2023-04-28T01:39:58.434Z,74.88
2023-04-28T01:42:28.239Z,74.72
2023-04-28T01:44:58.790Z,74.35
2023-04-28T01:47:27.931Z,75.21
2023-04-28T01:49:56.408Z,75.03
2023-04-28T01:52:24.884Z,74.60
2023-04-28T01:54:53.330Z,74.71
2023-04-28T01:57:22.502Z,74.87
2023-04-28T01:59:53.622Z,74.96
2023-04-28T02:02:22.576Z,75.57
2023-04-28T02:04:52.041Z,75.87
2023-04-28T02:07:21.255Z,74.71
2023-04-28T02:09:50.153Z,75.74
2023-04-28T02:12:18.731Z,75.59
2023-04-28T02:14:47.152Z,75.52
2023-04-28T02:17:17.008Z,75.57
2023-04-28T02:19:45.529Z,75.94
2023-04-28T02:22:14.192Z,75.52
2023-04-28T02:24:42.704Z,76.29
2023-04-28T02:27:11.069Z,76.02
2023-04-28T02:29:40.275Z,76.14
2023-04-28T02:32:08.737Z,75.74
2023-04-28T02:34:38.967Z,75.90
2023-04-28T02:37:07.549Z,76.35
2023-04-28T02:39:36.053Z,76.10
2023-04-28T02:42:05.511Z,76.41
2023-04-28T02:44:34.115Z,76.41
2023-04-28T02:47:02.714Z,76.21
2023-04-28T02:49:31.267Z,76.29
2023-04-28T02:52:01.065Z,76.50
2023-04-28T02:54:29.637Z,76.03
2023-04-28T02:56:59.126Z,76.26
2023-04-28T02:59:28.267Z,76.45
2023-04-28T03:01:57.227Z,76.72
2023-04-28T03:04:26.162Z,76.21
2023-04-28T03:06:54.943Z,76.40
2023-04-28T03:09:24.896Z,76.48
2023-04-28T03:11:53.282Z,76.83
2023-04-28T03:14:21.884Z,77.16
2023-04-28T03:16:50.852Z,76.79
2023-04-28T03:19:19.692Z,76.68
2023-04-28T03:21:48.156Z,76.69
2023-04-28T03:24:16.871Z,76.30
2023-04-28T03:26:46.794Z,76.82
2023-04-28T03:29:15.178Z,76.30
2023-04-28T03:31:44.548Z,76.05
2023-04-28T03:34:13.539Z,76.43
2023-04-28T03:36:42.028Z,76.48
2023-04-28T03:39:10.386Z,76.25
2023-04-28T03:41:38.711Z,76.25
2023-04-28T03:44:08.591Z,76.37
2023-04-28T03:46:36.972Z,76.33
2023-04-28T03:49:08.039Z,76.39
2023-04-28T03:51:36.497Z,76.10
2023-04-28T03:54:05.363Z,76.84
2023-04-28T03:56:33.908Z,76.28
2023-04-28T03:59:02.242Z,76.35
2023-04-28T04:01:31.995Z,76.64
2023-04-28T04:04:01.385Z,76.07
2023-04-28T04:06:29.963Z,76.08
2023-04-28T04:08:58.767Z,76.15
2023-04-28T04:11:27.607Z,76.51
2023-04-28T04:13:56.165Z,76.60
2023-04-28T04:16:25.117Z,76.00
2023-04-28T04:18:54.962Z,76.24
2023-04-28T04:21:24.900Z,75.83
2023-04-28T04:23:53.586Z,76.07
2023-04-28T04:26:22.479Z,75.78
2023-04-28T04:28:51.058Z,75.84
2023-04-28T04:31:19.942Z,76.44
2023-04-28T04:33:48.428Z,76.20
2023-04-28T04:36:18.412Z,76.04
2023-04-28T04:38:47.153Z,76.04
2023-04-28T04:41:15.745Z,75.29
2023-04-28T04:43:44.069Z,75.82
2023-04-28T04:46:12.447Z,75.87
2023-04-28T04:48:40.789Z,75.46
2023-04-28T04:51:09.205Z,75.87
2023-04-28T04:53:39.055Z,75.61
2023-04-28T04:56:07.954Z,75.30
2023-04-28T04:58:36.562Z,74.98
2023-04-28T05:01:04.935Z,75.32
2023-04-28T05:03:33.438Z,75.53
2023-04-28T05:06:03.009Z,75.36
2023-04-28T05:08:31.438Z,75.23
2023-04-28T05:11:01.191Z,75.24
2023-04-28T05:13:29.521Z,74.73
2023-04-28T05:15:58.088Z,75.10
2023-04-28T05:18:27.237Z,74.54
2023-04-28T05:20:56.047Z,74.12
2023-04-28T05:23:25.185Z,74.89
2023-04-28T05:25:53.928Z,74.08
2023-04-28T05:28:23.705Z,74.95
2023-04-28T05:30:52.382Z,74.39
2023-04-28T05:33:21.154Z,74.68
2023-04-28T05:35:50.182Z,74.49
2023-04-28T05:38:18.823Z,73.15
2023-04-28T05:40:47.181Z,73.38
2023-04-28T05:43:15.533Z,73.03
2023-04-28T05:45:45.308Z,73.63
2023-04-28T05:48:13.734Z,73.56
2023-04-28T05:50:42.336Z,72.68
2023-04-28T05:53:10.857Z,72.57
2023-04-28T05:55:39.422Z,72.82
2023-04-28T05:58:08.138Z,72.27
2023-04-28T06:00:36.961Z,71.81
2023-04-28T06:03:09.062Z,72.80
2023-04-28T06:05:37.740Z,72.07
2023-04-28T06:08:07.903Z,72.07
2023-04-28T06:10:36.306Z,71.99
2023-04-28T06:13:06.424Z,70.90
2023-04-28T06:15:35.023Z,71.93
2023-04-28T06:18:03.559Z,71.03
2023-04-28T06:20:33.295Z,70.06
2023-04-28T06:23:01.713Z,70.26
2023-04-28T06:25:31.427Z,70.78
2023-04-28T06:27:59.872Z,69.33
2023-04-28T06:30:28.222Z,69.70
2023-04-28T06:32:57.887Z,69.47
2023-04-28T06:35:27.271Z,69.13
2023-04-28T06:37:57.699Z,68.55
2023-04-28T06:40:26.096Z,68.74
2023-04-28T06:42:54.722Z,69.07
2023-04-28T06:45:23.415Z,68.25
2023-04-28T06:47:52.733Z,69.15
2023-04-28T06:50:21.432Z,68.20
2023-04-28T06:52:50.061Z,68.03
2023-04-28T06:55:20.105Z,68.30
2023-04-28T06:57:48.529Z,68.33
2023-04-28T07:00:18.299Z,67.70
2023-04-28T07:02:47.029Z,67.70
2023-04-28T07:05:16.692Z,67.36
2023-04-28T07:07:46.634Z,66.99
2023-04-28T07:10:15.827Z,67.00
2023-04-28T07:12:45.803Z,67.31
2023-04-28T07:15:14.162Z,66.43
2023-04-28T07:17:42.574Z,66.95
2023-04-28T07:20:11.883Z,66.30
2023-04-28T07:22:40.489Z,66.72
2023-04-28T07:25:09.821Z,66.22
2023-04-28T07:27:38.593Z,65.82
2023-04-28T07:30:25.645Z,65.92
2023-04-28T07:32:56.340Z,64.95
2023-04-28T07:35:25.105Z,64.98
2023-04-28T07:37:55.222Z,63.90
2023-04-28T07:40:23.981Z,63.90
2023-04-28T07:42:53.202Z,63.34
2023-04-28T07:45:23.321Z,63.08
2023-04-28T07:47:52.444Z,62.61
2023-04-28T07:50:21.129Z,62.55
2023-04-28T07:52:49.746Z,61.93
2023-04-28T07:55:18.419Z,61.98
2023-04-28T07:57:46.749Z,61.69
2023-04-28T08:00:16.629Z,61.44
2023-04-28T08:02:46.568Z,61.15
2023-04-28T08:05:15.383Z,61.04
2023-04-28T08:07:44.029Z,60.90
2023-04-28T08:10:13.313Z,60.82
2023-04-28T08:12:41.981Z,60.83
2023-04-28T08:15:11.744Z,60.28
2023-04-28T08:17:40.759Z,59.84
2023-04-28T08:20:12.022Z,59.67
2023-04-28T08:22:40.546Z,58.72
2023-04-28T08:25:10.897Z,58.46
2023-04-28T08:27:40.108Z,58.49
2023-04-28T08:30:10.210Z,57.92
2023-04-28T08:32:38.744Z,57.29
2023-04-28T08:35:09.026Z,57.27
2023-04-28T08:37:38.907Z,56.81
2023-04-28T08:40:10.890Z,56.36
2023-04-28T08:42:39.696Z,56.42
2023-04-28T08:45:09.770Z,56.28
2023-04-28T08:47:40.770Z,56.40
2023-04-28T08:50:12.609Z,56.49
2023-04-28T08:52:43.597Z,56.80
2023-04-28T08:55:13.870Z,56.68
2023-04-28T08:57:45.709Z,56.54
2023-04-28T09:00:15.237Z,56.36
2023-04-28T09:02:43.928Z,56.16
2023-04-28T09:05:14.685Z,56.53
2023-04-28T09:07:48.911Z,56.30
2023-04-28T09:10:21.336Z,56.21
2023-04-28T09:12:53.320Z,56.32
2023-04-28T09:15:34.182Z,56.56
2023-04-28T09:18:04.463Z,56.95
2023-04-28T09:20:35.747Z,57.35
2023-04-28T09:23:21.412Z,57.67
2023-04-28T09:26:05.401Z,58.31
2023-04-28T09:28:36.800Z,58.36
2023-04-28T09:31:06.047Z,58.56
2023-04-28T09:33:34.647Z,58.84
2023-04-28T09:36:04.549Z,58.70
2023-04-28T09:38:45.318Z,58.99
2023-04-28T09:41:14.110Z,58.40
2023-04-28T09:43:42.744Z,58.67
2023-04-28T09:46:12.102Z,59.22
2023-04-28T09:48:41.443Z,58.41
2023-04-28T09:51:12.390Z,58.13
2023-04-28T09:53:43.054Z,57.94
2023-04-28T09:56:12.082Z,56.95
2023-04-28T09:58:44.695Z,56.47
2023-04-28T10:01:14.301Z,56.22
2023-04-28T10:03:45.486Z,56.81
2023-04-28T10:06:14.876Z,56.69
2023-04-28T10:08:48.281Z,56.35
2023-04-28T10:11:17.575Z,56.64
2023-04-28T10:13:46.221Z,56.27
2023-04-28T10:16:15.962Z,56.41
2023-04-28T10:18:45.041Z,55.67
2023-04-28T10:21:18.300Z,55.42
2023-04-28T10:24:11.353Z,54.61
2023-04-28T10:27:09.770Z,53.71
2023-04-28T10:29:39.469Z,53.01
2023-04-28T10:32:23.624Z,51.76
2023-04-28T10:34:53.333Z,51.19
2023-04-28T10:37:22.597Z,51.01
2023-04-28T10:40:35.789Z,51.47
2023-04-28T10:43:05.160Z,51.34
2023-04-28T10:46:13.031Z,51.61
2023-04-28T10:49:08.331Z,51.69
2023-04-28T10:51:37.715Z,51.74
2023-04-28T10:54:19.961Z,51.29
2023-04-28T10:57:22.910Z,51.27
2023-04-28T10:59:52.829Z,51.74
2023-04-28T11:02:51.412Z,51.85
2023-04-28T11:05:21.861Z,51.93
2023-04-28T11:08:33.274Z,52.43
2023-04-28T11:11:27.452Z,52.78
2023-04-28T11:14:32.931Z,52.76
2023-04-28T11:17:03.743Z,52.76
2023-04-28T11:19:34.369Z,53.26
2023-04-28T11:22:10.028Z,53.90
2023-04-28T11:24:39.191Z,54.41
2023-04-28T11:27:07.758Z,55.20
2023-04-28T11:29:40.242Z,56.03
2023-04-28T11:32:11.272Z,56.25
2023-04-28T11:34:39.979Z,56.64
2023-04-28T11:37:09.368Z,56.41
2023-04-28T11:39:37.877Z,56.26
2023-04-28T11:42:12.131Z,56.08
2023-04-28T11:44:41.974Z,56.11
2023-04-28T11:47:10.382Z,55.86
2023-04-28T11:49:45.871Z,55.58
2023-04-28T11:52:15.038Z,54.45
2023-04-28T11:54:43.921Z,52.89
2023-04-28T11:57:20.455Z,52.16
2023-04-28T11:59:51.154Z,51.93
2023-04-28T12:02:30.063Z,51.26
2023-04-28T12:05:07.554Z,51.11
2023-04-28T12:07:43.945Z,51.35
2023-04-28T12:10:16.099Z,51.21
2023-04-28T12:12:51.872Z,51.50
2023-04-28T12:15:25.084Z,51.72
2023-04-28T12:17:53.616Z,52.17
2023-04-28T12:20:38.957Z,52.32
2023-04-28T12:23:08.589Z,52.72
2023-04-28T12:25:45.657Z,53.10
2023-04-28T12:28:14.273Z,53.06
2023-04-28T12:30:44.180Z,52.71
2023-04-28T12:33:25.202Z,52.66
2023-04-28T12:35:55.249Z,52.72
2023-04-28T12:38:24.120Z,52.73
2023-04-28T12:40:53.279Z,52.89
2023-04-28T12:43:23.451Z,52.32
2023-04-28T12:45:54.531Z,52.34
2023-04-28T12:48:24.000Z,52.31
2023-04-28T12:50:53.062Z,52.63
2023-04-28T12:53:22.236Z,52.50
2023-04-28T12:55:51.200Z,52.45
2023-04-28T12:58:19.967Z,52.61
2023-04-28T13:00:51.240Z,52.71
2023-04-28T13:03:21.727Z,53.25
2023-04-28T13:05:50.352Z,54.16
2023-04-28T13:08:18.731Z,54.39
2023-04-28T13:10:47.195Z,54.28
2023-04-28T13:13:15.523Z,54.42
2023-04-28T13:15:44.271Z,54.41
2023-04-28T13:18:12.666Z,54.25
2023-04-28T13:20:42.658Z,54.44
2023-04-28T13:23:11.139Z,54.88
2023-04-28T13:25:39.582Z,55.39
2023-04-28T13:28:08.088Z,55.44
2023-04-28T13:30:36.908Z,55.57
2023-04-28T13:33:05.529Z,55.68
2023-04-28T13:35:33.934Z,55.54
2023-04-28T13:38:04.587Z,55.80
2023-04-28T13:40:35.660Z,55.78
2023-04-28T13:43:04.156Z,55.70
2023-04-28T13:45:33.069Z,56.10
2023-04-28T13:48:01.515Z,56.33
2023-04-28T13:50:30.092Z,57.07
2023-04-28T13:52:58.741Z,57.05
2023-04-28T13:55:28.815Z,57.84
2023-04-28T13:58:01.636Z,58.79
2023-04-28T14:00:30.122Z,59.55
2023-04-28T14:03:00.144Z,60.52
2023-04-28T14:05:31.535Z,60.80
2023-04-28T14:08:08.819Z,60.88
2023-04-28T14:10:38.702Z,61.50
2023-04-28T14:13:09.022Z,62.07
2023-04-28T14:15:42.460Z,63.16
2023-04-28T14:18:22.154Z,63.77
2023-04-28T14:20:51.309Z,64.98
2023-04-28T14:23:20.649Z,66.02
2023-04-28T14:25:52.082Z,66.62
2023-04-28T14:28:24.298Z,67.21
2023-04-28T14:30:56.270Z,67.73
2023-04-28T14:33:25.418Z,68.29
2023-04-28T14:35:54.011Z,69.02
2023-04-28T14:38:23.820Z,69.55
2023-04-28T14:40:54.246Z,70.06
2023-04-28T14:43:23.884Z,70.23
2023-04-28T14:45:53.006Z,70.78
2023-04-28T14:48:22.256Z,71.57
2023-04-28T14:50:51.507Z,72.21
2023-04-28T14:53:20.009Z,72.35
2023-04-28T14:55:48.562Z,73.08
2023-04-28T14:58:18.474Z,73.42
2023-04-28T15:00:46.801Z,73.95
2023-04-28T15:03:15.607Z,73.87
2023-04-28T15:05:44.130Z,74.14
2023-04-28T15:08:12.902Z,74.96
2023-04-28T15:10:44.052Z,75.11
2023-04-28T15:13:12.867Z,75.99
2023-04-28T15:15:42.719Z,76.11
2023-04-28T15:18:13.133Z,76.57
2023-04-28T15:20:41.743Z,76.84
2023-04-28T15:23:10.866Z,77.17
2023-04-28T15:25:41.524Z,77.14
2023-04-28T15:28:10.396Z,77.71
2023-04-28T15:30:41.167Z,77.72
2023-04-28T15:33:17.159Z,78.45
2023-04-28T15:35:46.453Z,78.40
2023-04-28T15:38:14.958Z,78.89
2023-04-28T15:40:44.422Z,79.30
2023-04-28T15:43:13.526Z,79.58
2023-04-28T15:45:45.129Z,79.33
2023-04-28T15:48:15.438Z,79.84
2023-04-28T15:50:44.270Z,79.73
2023-04-28T15:53:12.784Z,79.98
2023-04-28T15:55:41.296Z,80.89
2023-04-28T15:58:10.971Z,80.91
2023-04-28T16:00:40.652Z,81.06
2023-04-28T16:03:09.694Z,80.81
2023-04-28T16:05:39.895Z,80.87
2023-04-28T16:08:08.300Z,80.93
2023-04-28T16:10:36.879Z,81.56
2023-04-28T16:13:10.799Z,82.00
2023-04-28T16:15:39.976Z,82.34
2023-04-28T16:18:08.521Z,81.69
2023-04-28T16:20:38.667Z,82.15
2023-04-28T16:23:07.601Z,82.83
2023-04-28T16:25:36.553Z,82.83
2023-04-28T16:28:05.130Z,82.95
2023-04-28T16:30:34.740Z,82.41
2023-04-28T16:33:03.681Z,82.37
2023-04-28T16:35:32.962Z,83.29
2023-04-28T16:38:05.671Z,82.97
2023-04-28T16:40:34.109Z,82.97
2023-04-28T16:43:03.296Z,83.12
2023-04-28T16:45:31.881Z,83.43
2023-04-28T16:48:01.871Z,83.85
2023-04-28T16:50:30.473Z,83.32
2023-04-28T16:52:59.151Z,84.01
2023-04-28T16:55:30.347Z,83.55
2023-04-28T16:57:58.817Z,83.98
2023-04-28T17:00:27.998Z,83.33
2023-04-28T17:02:57.027Z,83.94
2023-04-28T17:05:25.768Z,84.11
2023-04-28T17:07:55.185Z,84.26
2023-04-28T17:10:23.828Z,84.24
2023-04-28T17:12:53.785Z,84.49
2023-04-28T17:15:22.716Z,84.03
2023-04-28T17:17:52.058Z,83.90
2023-04-28T17:20:21.639Z,84.80
2023-04-28T17:22:51.072Z,84.65
2023-04-28T17:25:20.323Z,84.69
2023-04-28T17:27:48.780Z,84.63
2023-04-28T17:30:19.035Z,84.86
2023-04-28T17:32:47.700Z,84.97
2023-04-28T17:35:16.478Z,85.33
2023-04-28T17:37:45.158Z,85.11
2023-04-28T17:40:14.888Z,85.43
2023-04-28T17:42:44.045Z,85.40
2023-04-28T17:45:13.296Z,85.44
2023-04-28T17:47:43.081Z,85.07
2023-04-28T17:50:12.232Z,85.28
2023-04-28T17:52:43.381Z,85.40
2023-04-28T17:55:15.603Z,85.63
2023-04-28T17:57:44.050Z,85.48
2023-04-28T18:00:14.676Z,85.76
2023-04-28T18:02:44.710Z,85.61
2023-04-28T18:05:13.557Z,85.93
2023-04-28T18:07:41.982Z,85.71
2023-04-28T18:10:11.183Z,85.98
2023-04-28T18:12:39.858Z,85.49
2023-04-28T18:15:09.666Z,85.94
2023-04-28T18:17:38.269Z,85.88
2023-04-28T18:20:10.554Z,85.96
2023-04-28T18:22:39.196Z,86.30
2023-04-28T18:25:08.536Z,85.93
2023-04-28T18:27:37.455Z,86.69
2023-04-28T18:30:07.080Z,86.37
2023-04-28T18:32:36.025Z,86.89
2023-04-28T18:35:04.844Z,86.52
2023-04-28T18:37:34.696Z,86.95
2023-04-28T18:40:03.998Z,86.78
2023-04-28T18:42:33.117Z,87.06
2023-04-28T18:45:01.925Z,87.22
2023-04-28T18:47:30.988Z,87.62
2023-04-28T18:50:01.006Z,87.49
2023-04-28T18:52:30.095Z,88.13
2023-04-28T18:54:59.862Z,88.08
2023-04-28T18:57:28.842Z,88.10
2023-04-28T19:00:00.789Z,88.18
2023-04-28T19:02:29.681Z,88.57
2023-04-28T19:04:58.826Z,88.32
2023-04-28T19:07:28.320Z,88.59
2023-04-28T19:09:56.694Z,88.53
2023-04-28T19:12:26.821Z,88.55
2023-04-28T19:14:55.838Z,87.99
2023-04-28T19:17:25.002Z,88.44
2023-04-28T19:19:57.482Z,88.44
2023-04-28T19:22:34.765Z,88.74
2023-04-28T19:25:04.239Z,88.55
2023-04-28T19:27:37.094Z,88.65
2023-04-28T19:30:07.867Z,88.81
2023-04-28T19:32:36.832Z,88.98
2023-04-28T19:35:05.891Z,88.74
2023-04-28T19:37:35.130Z,88.56
2023-04-28T19:40:05.903Z,89.19
2023-04-28T19:42:36.003Z,89.08
2023-04-28T19:45:04.672Z,89.26
2023-04-28T19:47:34.231Z,89.19
2023-04-28T19:50:02.826Z,89.20
2023-04-28T19:52:31.416Z,89.14
2023-04-28T19:55:00.697Z,89.43
2023-04-28T19:57:30.351Z,89.63
2023-04-28T20:00:00.129Z,89.65
2023-04-28T20:02:29.028Z,89.77
2023-04-28T20:04:57.983Z,89.52
2023-04-28T20:07:26.624Z,89.74
2023-04-28T20:09:56.428Z,89.70
2023-04-28T20:12:25.489Z,89.85
2023-04-28T20:14:54.381Z,90.12
2023-04-28T20:17:24.446Z,90.26
2023-04-28T20:19:53.622Z,90.28
2023-04-28T20:22:22.610Z,89.92
2023-04-28T20:24:51.417Z,90.13
2023-04-28T20:27:21.985Z,90.17
2023-04-28T20:29:50.714Z,90.22
2023-04-28T20:32:19.654Z,90.38
2023-04-28T20:34:49.447Z,90.41
2023-04-28T20:37:17.893Z,90.19
2023-04-28T20:39:47.131Z,90.39
2023-04-28T20:42:15.685Z,90.52
2023-04-28T20:44:44.495Z,89.95
2023-04-28T20:47:13.045Z,90.33
2023-04-28T20:49:42.557Z,90.48
2023-04-28T20:52:12.288Z,90.60
2023-04-28T20:54:43.629Z,90.53
2023-04-28T20:57:12.138Z,90.54
2023-04-28T20:59:40.624Z,90.66
2023-04-28T21:02:09.173Z,90.56
2023-04-28T21:04:37.562Z,90.55
2023-04-28T21:07:06.045Z,90.34
2023-04-28T21:09:37.498Z,90.73
2023-04-28T21:12:06.697Z,90.70
2023-04-28T21:14:36.841Z,90.66
2023-04-28T21:17:07.107Z,90.80
2023-04-28T21:19:36.102Z,91.26
2023-04-28T21:22:04.431Z,90.72
2023-04-28T21:24:32.882Z,90.47
2023-04-28T21:27:05.421Z,90.69
2023-04-28T21:29:34.578Z,90.94
2023-04-28T21:32:03.113Z,90.80
2023-04-28T21:34:32.972Z,90.78
2023-04-28T21:37:02.185Z,91.05
2023-04-28T21:39:30.590Z,90.99
2023-04-28T21:41:59.027Z,90.58
2023-04-28T21:44:29.087Z,90.89
2023-04-28T21:46:57.867Z,90.89
2023-04-28T21:49:27.232Z,90.83
2023-04-28T21:51:55.686Z,90.83
2023-04-28T21:54:24.438Z,91.32
2023-04-28T21:56:53.052Z,91.49
2023-04-28T21:59:22.018Z,91.00
2023-04-28T22:01:53.098Z,91.06
2023-04-28T22:04:21.886Z,90.84
2023-04-28T22:06:50.754Z,90.67
2023-04-28T22:09:19.269Z,90.68
2023-04-28T22:11:47.673Z,90.93
2023-04-28T22:14:34.961Z,90.88
2023-04-28T22:17:06.245Z,90.89
2023-04-28T22:19:34.617Z,90.82
2023-04-28T22:22:03.203Z,90.80
2023-04-28T22:24:31.680Z,90.79
2023-04-28T22:27:00.209Z,90.88
2023-04-28T22:29:29.507Z,91.02
2023-04-28T22:31:58.754Z,90.96
2023-04-28T22:34:28.493Z,90.87
2023-04-28T22:36:57.035Z,91.00
2023-04-28T22:39:26.947Z,90.88
2023-04-28T22:41:55.825Z,90.79
2023-04-28T22:44:24.572Z,90.79
2023-04-28T22:46:53.414Z,91.00
2023-04-28T22:49:25.744Z,90.87
2023-04-28T22:51:55.649Z,90.79
2023-04-28T22:54:24.224Z,90.61
2023-04-28T22:56:53.388Z,90.97
2023-04-28T22:59:22.212Z,90.88
2023-04-28T23:01:51.703Z,90.83
2023-04-28T23:04:20.603Z,90.79
2023-04-28T23:06:49.278Z,90.75
2023-04-28T23:09:19.705Z,90.75
2023-04-28T23:11:48.247Z,90.79
2023-04-28T23:14:16.641Z,91.05
2023-04-28T23:16:45.052Z,91.03
2023-04-28T23:19:13.470Z,90.98
2023-04-28T23:21:42.068Z,91.08
2023-04-28T23:24:11.538Z,91.14
2023-04-28T23:26:41.629Z,90.83
2023-04-28T23:29:11.253Z,90.88
2023-04-28T23:31:40.072Z,90.89
2023-04-28T23:34:08.802Z,90.86
2023-04-28T23:36:38.062Z,90.65
2023-04-28T23:39:07.134Z,90.88
2023-04-28T23:41:35.806Z,90.49
2023-04-28T23:44:06.173Z,90.90
2023-04-28T23:46:35.037Z,90.94
2023-04-28T23:49:03.932Z,90.70
2023-04-28T23:51:33.003Z,90.70
2023-04-28T23:54:02.603Z,90.74
2023-04-28T23:56:31.404Z,90.73
2023-04-28T23:59:01.011Z,91.05
